Time;durP1;ratioP1;P1;durP2;ratioP2;P2;SDS_P1;SDS_P2;PMS_P1;PMS_P2;Temp;Humidity;BMP_temperature;BMP_pressure;BME280_temperature;BME280_humidity;BME280_pressure;Samples;Min_cycle;Max_cycle;Signal;HPM_P1;HPM_P2
2022/08/02 00:01:05;;;;;;;2.53;1.40;;;19.90;53.90;;;;;;5063753;28;20044;-52
2022/08/02 00:03:35;;;;;;;1.88;1.40;;;19.90;54.10;;;;;;5080762;28;20411;-49
2022/08/02 00:06:03;;;;;;;2.17;1.48;;;19.90;54.60;;;;;;5084283;28;20044;-51
2022/08/02 00:08:30;;;;;;;2.08;1.40;;;19.90;54.10;;;;;;5078100;28;20063;-51
2022/08/02 00:10:57;;;;;;;2.25;1.23;;;19.80;54.20;;;;;;5071048;28;20036;-48
2022/08/02 00:13:23;;;;;;;1.90;1.55;;;19.80;54.30;;;;;;5083895;28;20492;-49
2022/08/02 00:15:56;;;;;;;1.67;1.38;;;19.80;54.40;;;;;;5081437;28;20040;-50
2022/08/02 00:18:23;;;;;;;2.20;2.00;;;19.80;54.60;;;;;;5068325;28;20067;-49
2022/08/02 00:20:50;;;;;;;1.42;1.33;;;19.80;54.60;;;;;;5078992;28;20085;-48
2022/08/02 00:23:18;;;;;;;1.75;1.65;;;19.80;54.80;;;;;;5080359;28;20413;-50
2022/08/02 00:25:44;;;;;;;1.83;1.20;;;19.80;55.00;;;;;;5087439;28;20044;-49
2022/08/02 00:28:21;;;;;;;1.30;1.20;;;19.80;55.10;;;;;;5092471;28;20032;-49
2022/08/02 00:30:53;;;;;;;;;;;19.80;55.10;;;;;;5082297;28;20078;-50
2022/08/02 00:33:27;;;;;;;1.30;1.20;;;19.80;54.60;;;;;;5072210;28;19927;-51
2022/08/02 00:36:15;;;;;;;0.90;0.90;;;19.80;54.70;;;;;;5091201;28;20638;-51
2022/08/02 00:38:42;;;;;;;1.85;1.35;;;19.80;54.80;;;;;;5080940;28;20099;-48
2022/08/02 00:41:15;;;;;;;1.35;1.30;;;19.80;55.20;;;;;;5085844;28;20132;-48
2022/08/02 00:43:46;;;;;;;1.48;1.38;;;19.90;55.70;;;;;;5086985;28;20393;-52
2022/08/02 00:46:17;;;;;;;1.65;1.30;;;19.70;55.50;;;;;;5087506;28;20036;-53
2022/08/02 00:48:45;;;;;;;2.13;1.55;;;19.80;56.00;;;;;;5070128;28;20045;-52
2022/08/02 00:51:12;;;;;;;2.15;1.45;;;19.80;55.70;;;;;;5082320;28;20048;-49
2022/08/02 00:53:40;;;;;;;1.95;1.40;;;19.80;55.80;;;;;;5086690;28;20503;-52
2022/08/02 00:56:08;;;;;;;2.63;1.42;;;19.80;56.00;;;;;;5091907;28;20062;-50
2022/08/02 00:58:37;;;;;;;1.85;1.40;;;19.80;56.00;;;;;;5078691;28;20122;-51
2022/08/02 01:01:06;;;;;;;1.27;1.17;;;19.80;57.00;;;;;;5081027;28;20036;-49
2022/08/02 01:03:35;;;;;;;1.77;1.58;;;19.80;56.10;;;;;;5091192;28;20549;-48
2022/08/02 01:06:05;;;;;;;3.08;1.30;;;19.80;56.20;;;;;;5079227;28;20047;-49
2022/08/02 01:08:40;;;;;;;2.20;1.35;;;19.80;56.20;;;;;;5079510;28;20043;-51
2022/08/02 01:11:09;;;;;;;1.88;1.55;;;19.80;56.20;;;;;;5082504;28;20051;-51
2022/08/02 01:13:38;;;;;;;2.35;1.23;;;19.80;56.20;;;;;;5091669;28;20122;-49
2022/08/02 01:16:14;;;;;;;1.52;1.42;;;19.80;56.30;;;;;;5060092;28;20119;-48
2022/08/02 01:18:49;;;;;;;2.60;1.50;;;19.80;56.60;;;;;;5075457;28;20089;-52
2022/08/02 01:21:37;;;;;;;1.15;1.05;;;19.80;56.50;;;;;;5081764;28;20090;-50
2022/08/02 01:24:22;;;;;;;3.22;2.42;;;19.80;57.00;;;;;;5091673;28;20044;-49
2022/08/02 01:27:07;;;;;;;1.50;1.35;;;19.80;56.90;;;;;;5072289;28;20094;-53
2022/08/02 01:29:42;;;;;;;1.90;1.80;;;19.70;56.50;;;;;;5079419;28;20038;-50
2022/08/02 01:32:17;;;;;;;1.67;1.58;;;19.70;56.60;;;;;;5090377;28;20067;-49
2022/08/02 01:35:06;;;;;;;4.05;1.65;;;19.70;56.90;;;;;;5080476;28;20037;-49
2022/08/02 01:37:42;;;;;;;1.52;1.30;;;19.80;57.30;;;;;;5075557;28;20074;-50
2022/08/02 01:40:22;;;;;;;1.60;1.50;;;19.70;56.90;;;;;;5083428;28;20067;-48
2022/08/02 01:42:57;;;;;;;1.63;1.52;;;19.70;57.40;;;;;;5073258;28;20040;-51
2022/08/02 01:45:28;;;;;;;2.65;1.33;;;19.70;56.70;;;;;;5081529;28;20062;-50
2022/08/02 01:48:01;;;;;;;4.90;1.77;;;19.70;56.80;;;;;;5070384;28;20041;-49
2022/08/02 01:50:32;;;;;;;1.60;1.50;;;19.60;57.00;;;;;;5070359;28;20040;-49
2022/08/02 01:53:04;;;;;;;2.03;1.45;;;19.60;57.00;;;;;;5064324;28;20106;-48
2022/08/02 01:55:41;;;;;;;3.35;2.53;;;19.60;57.10;;;;;;5079220;28;20047;-51
2022/08/02 01:58:29;;;;;;;2.17;1.60;;;19.60;56.90;;;;;;5075285;28;20048;-50
2022/08/02 02:00:59;;;;;;;2.65;1.77;;;19.60;56.70;;;;;;5080572;28;20504;-51
2022/08/02 02:03:29;;;;;;;2.53;1.40;;;19.60;56.70;;;;;;5079617;28;20040;-49
2022/08/02 02:06:04;;;;;;;1.75;1.40;;;19.60;56.70;;;;;;5082227;28;20111;-49
2022/08/02 02:08:37;;;;;;;1.25;1.15;;;19.50;56.60;;;;;;5090242;28;20055;-51
2022/08/02 02:11:06;;;;;;;1.42;1.33;;;19.50;56.60;;;;;;5075572;28;20120;-48
2022/08/02 02:13:56;;;;;;;3.72;1.60;;;19.50;56.50;;;;;;5077920;28;20124;-49
2022/08/02 02:16:27;;;;;;;2.15;1.60;;;19.40;56.40;;;;;;5063639;28;20039;-48
2022/08/02 02:18:54;;;;;;;1.27;1.20;;;19.40;56.50;;;;;;5081628;28;20681;-48
2022/08/02 02:21:21;;;;;;;2.15;1.40;;;19.30;56.60;;;;;;5073139;28;20467;-49
2022/08/02 02:23:48;;;;;;;4.07;1.90;;;19.30;56.70;;;;;;5090214;28;20044;-52
2022/08/02 02:26:19;;;;;;;2.30;1.65;;;19.30;56.80;;;;;;5064686;28;20040;-48
2022/08/02 02:29:00;;;;;;;1.77;1.42;;;19.20;56.80;;;;;;5078901;28;20086;-49
2022/08/02 02:31:31;;;;;;;2.92;2.00;;;19.20;57.10;;;;;;5075272;28;20032;-48
2022/08/02 02:34:23;;;;;;;2.80;1.65;;;19.20;57.10;;;;;;5080956;28;20093;-48
2022/08/02 02:36:52;;;;;;;1.60;1.50;;;19.20;57.40;;;;;;5085740;28;20457;-49
2022/08/02 02:39:22;;;;;;;1.70;1.60;;;19.10;57.30;;;;;;5091137;28;20423;-48
2022/08/02 02:42:00;;;;;;;1.60;1.50;;;19.10;57.40;;;;;;5070458;28;20045;-50
2022/08/02 02:44:28;;;;;;;2.45;1.52;;;19.10;57.60;;;;;;5087059;28;20049;-49
2022/08/02 02:46:56;;;;;;;1.85;1.50;;;19.10;57.30;;;;;;5075573;28;20040;-48
2022/08/02 02:49:24;;;;;;;2.78;1.92;;;19.00;57.30;;;;;;5064533;28;20052;-49
2022/08/02 02:51:58;;;;;;;4.38;1.65;;;19.00;57.30;;;;;;5078377;28;20043;-52
2022/08/02 02:54:25;;;;;;;2.03;1.75;;;19.00;57.40;;;;;;5079846;28;20089;-48
2022/08/02 02:57:01;;;;;;;3.00;1.60;;;19.00;57.30;;;;;;5089212;28;20075;-49
2022/08/02 02:59:29;;;;;;;2.58;1.55;;;19.00;57.40;;;;;;5075008;28;20427;-50
2022/08/02 03:01:59;;;;;;;1.73;1.60;;;19.00;57.60;;;;;;5079424;28;20150;-52
2022/08/02 03:04:32;;;;;;;2.65;1.55;;;18.90;57.50;;;;;;5090427;28;20044;-50
2022/08/02 03:07:22;;;;;;;1.85;1.65;;;18.90;58.30;;;;;;5082918;28;20040;-48
2022/08/02 03:09:51;;;;;;;3.03;1.92;;;18.90;57.90;;;;;;5071723;28;20060;-49
2022/08/02 03:12:22;;;;;;;3.33;1.92;;;18.80;58.00;;;;;;5069329;28;20036;-49
2022/08/02 03:14:58;;;;;;;2.85;1.65;;;18.90;58.20;;;;;;5069524;28;20033;-49
2022/08/02 03:17:25;;;;;;;2.38;1.60;;;18.90;58.10;;;;;;5066612;28;20043;-48
2022/08/02 03:19:51;;;;;;;2.35;1.50;;;18.80;58.00;;;;;;5081441;28;20044;-51
2022/08/02 03:22:25;;;;;;;4.50;2.00;;;18.80;58.00;;;;;;5088832;28;20454;-48
2022/08/02 03:25:11;;;;;;;4.45;2.00;;;18.90;58.00;;;;;;5080837;28;20041;-49
2022/08/02 03:27:38;;;;;;;3.13;2.00;;;18.80;58.10;;;;;;5074010;28;20032;-47
2022/08/02 03:30:07;;;;;;;2.15;1.88;;;18.80;57.90;;;;;;5086929;28;20515;-49
2022/08/02 03:32:38;;;;;;;1.52;1.35;;;18.80;58.70;;;;;;5086559;28;20097;-48
2022/08/02 03:35:08;;;;;;;1.95;1.60;;;18.80;58.10;;;;;;5088568;28;20037;-50
2022/08/02 03:37:39;;;;;;;1.92;1.70;;;18.70;58.00;;;;;;5079462;28;20047;-49
2022/08/02 03:40:08;;;;;;;3.72;1.70;;;18.70;58.10;;;;;;5085589;28;20040;-48
2022/08/02 03:42:42;;;;;;;2.88;1.75;;;18.70;58.00;;;;;;5072425;28;20386;-49
2022/08/02 03:45:14;;;;;;;3.22;1.90;;;18.60;58.00;;;;;;5069370;28;20076;-52
2022/08/02 03:47:42;;;;;;;2.03;1.83;;;18.60;58.20;;;;;;5071284;28;20522;-48
2022/08/02 03:50:14;;;;;;;3.10;1.83;;;18.60;58.20;;;;;;5083193;28;20079;-50
2022/08/02 03:52:45;;;;;;;2.25;2.05;;;18.60;58.30;;;;;;5093175;28;20048;-48
2022/08/02 03:55:12;;;;;;;3.08;2.00;;;18.60;58.30;;;;;;5077852;28;20493;-49
2022/08/02 03:57:44;;;;;;;2.10;1.88;;;18.60;58.30;;;;;;5083695;28;20071;-48
2022/08/02 04:00:16;;;;;;;2.00;1.70;;;18.50;58.30;;;;;;5092984;28;20052;-49
2022/08/02 04:02:46;;;;;;;2.60;1.80;;;18.50;58.40;;;;;;5083169;28;20555;-48
2022/08/02 04:05:13;;;;;;;1.95;1.75;;;18.50;58.30;;;;;;5073179;28;20098;-50
2022/08/02 04:07:39;;;;;;;3.53;1.98;;;18.50;58.50;;;;;;5083125;28;20113;-49
2022/08/02 04:10:26;;;;;;;2.78;1.92;;;18.50;58.70;;;;;;5079454;28;20044;-47
2022/08/02 04:12:54;;;;;;;2.90;2.28;;;18.40;58.60;;;;;;5092919;28;20446;-50
2022/08/02 04:15:24;;;;;;;2.35;2.10;;;18.40;58.80;;;;;;5078658;28;20462;-48
2022/08/02 04:17:55;;;;;;;3.80;2.60;;;18.40;59.00;;;;;;5082594;28;20058;-49
2022/08/02 04:20:30;;;;;;;3.50;2.22;;;18.40;59.20;;;;;;5093923;28;20052;-49
2022/08/02 04:23:01;;;;;;;2.22;1.95;;;18.40;59.30;;;;;;5076503;28;20463;-48
2022/08/02 04:25:32;;;;;;;3.17;2.37;;;18.40;59.40;;;;;;5072777;28;20044;-50
2022/08/02 04:28:07;;;;;;;2.33;2.13;;;18.40;59.60;;;;;;5074183;28;20045;-48
2022/08/02 04:30:50;;;;;;;2.83;2.42;;;18.40;59.70;;;;;;5084911;28;20093;-49
2022/08/02 04:33:20;;;;;;;3.78;2.63;;;18.50;60.10;;;;;;5080116;28;20045;-48
2022/08/02 04:35:46;;;;;;;2.97;2.42;;;18.50;60.00;;;;;;5066363;28;20079;-49
2022/08/02 04:38:14;;;;;;;3.97;2.45;;;18.50;59.90;;;;;;5079707;28;20052;-49
2022/08/02 04:40:54;;;;;;;3.45;2.30;;;18.50;60.10;;;;;;5059614;28;20074;-53
2022/08/02 04:43:22;;;;;;;2.42;2.22;;;18.60;60.90;;;;;;5065543;28;20044;-48
2022/08/02 04:45:53;;;;;;;4.35;2.58;;;18.60;60.40;;;;;;5064929;28;20047;-49
2022/08/02 04:48:20;;;;;;;2.78;2.58;;;18.60;61.10;;;;;;5067746;28;20037;-49
2022/08/02 04:50:48;;;;;;;4.03;2.22;;;18.70;60.60;;;;;;5070105;28;20071;-50
2022/08/02 04:53:15;;;;;;;2.80;2.30;;;18.70;60.80;;;;;;5080636;28;20044;-48
2022/08/02 04:55:41;;;;;;;3.58;2.80;;;18.80;60.90;;;;;;5059998;28;20033;-50
2022/08/02 04:58:08;;;;;;;3.85;2.38;;;18.80;61.10;;;;;;5068184;28;20549;-49
2022/08/02 05:00:55;;;;;;;3.83;2.28;;;18.90;61.10;;;;;;5071244;28;20120;-48
2022/08/02 05:03:21;;;;;;;3.50;3.05;;;19.00;61.20;;;;;;5078267;28;20040;-52
2022/08/02 05:05:48;;;;;;;3.42;3.13;;;19.00;61.40;;;;;;5083255;28;20105;-50
2022/08/02 05:08:15;;;;;;;3.90;2.83;;;19.10;61.50;;;;;;5060875;28;20123;-48
2022/08/02 05:10:42;;;;;;;6.72;3.50;;;19.20;61.60;;;;;;5070277;28;20036;-48
2022/08/02 05:13:08;;;;;;;3.85;2.58;;;19.20;61.60;;;;;;5070165;28;20037;-50
2022/08/02 05:15:35;;;;;;;2.85;2.65;;;19.30;61.80;;;;;;5061782;28;20761;-50
2022/08/02 05:18:02;;;;;;;3.35;3.05;;;19.40;61.80;;;;;;5062642;28;20037;-48
2022/08/02 05:20:29;;;;;;;5.60;3.00;;;19.40;62.60;;;;;;5067211;28;20105;-48
2022/08/02 05:22:55;;;;;;;3.70;2.85;;;19.50;61.90;;;;;;5061934;28;20037;-47
2022/08/02 05:25:22;;;;;;;3.55;2.65;;;19.60;61.90;;;;;;5067641;28;20032;-47
2022/08/02 05:27:49;;;;;;;3.22;2.92;;;19.60;62.00;;;;;;5058441;28;20804;-48
2022/08/02 05:30:16;;;;;;;3.70;2.72;;;19.60;62.10;;;;;;5075576;28;20435;-52
2022/08/02 05:32:51;;;;;;;3.53;3.05;;;19.70;62.20;;;;;;5070732;28;20501;-45
2022/08/02 05:35:23;;;;;;;3.53;2.80;;;19.70;62.50;;;;;;5051603;28;20102;-49
2022/08/02 05:37:50;;;;;;;5.60;3.45;;;19.70;62.50;;;;;;5074317;28;20724;-45
2022/08/02 05:40:18;;;;;;;4.85;3.17;;;19.80;62.40;;;;;;5079252;28;20101;-48
2022/08/02 05:42:52;;;;;;;7.15;4.07;;;19.90;62.50;;;;;;5076142;28;20549;-46
2022/08/02 05:45:19;;;;;;;4.15;3.53;;;19.90;62.50;;;;;;5073098;28;20071;-48
2022/08/02 05:47:45;;;;;;;5.63;3.15;;;19.90;62.60;;;;;;5068130;28;20040;-46
2022/08/02 05:50:12;;;;;;;3.78;3.47;;;20.00;62.90;;;;;;5063053;28;20064;-46
2022/08/02 05:52:39;;;;;;;5.05;3.28;;;20.00;63.00;;;;;;5061290;28;20057;-49
2022/08/02 05:55:17;;;;;;;4.38;3.33;;;20.10;63.20;;;;;;5079755;28;20450;-49
2022/08/02 05:57:54;;;;;;;6.03;3.60;;;20.20;64.00;;;;;;5072925;28;20041;-50
2022/08/02 06:00:21;;;;;;;4.10;3.70;;;20.20;63.30;;;;;;5074504;28;20109;-46
2022/08/02 06:03:21;;;;;;;4.63;3.03;;;20.30;63.20;;;;;;5087635;28;20109;-48
2022/08/02 06:05:59;;;;;;;4.68;3.60;;;20.30;64.40;;;;;;5073976;28;20127;-48
2022/08/02 06:08:36;;;;;;;4.63;3.25;;;20.40;63.60;;;;;;5077301;28;20102;-47
2022/08/02 06:11:05;;;;;;;4.43;3.70;;;20.40;63.80;;;;;;5078571;28;20032;-45
2022/08/02 06:13:33;;;;;;;3.92;3.33;;;20.50;63.20;;;;;;5051493;28;20091;-52
2022/08/02 06:16:01;;;;;;;4.85;3.38;;;20.50;63.40;;;;;;5064552;28;20037;-46
2022/08/02 06:18:30;;;;;;;5.25;3.08;;;20.60;63.40;;;;;;5078980;28;20109;-46
2022/08/02 06:20:59;;;;;;;4.28;2.97;;;20.70;63.60;;;;;;5078756;28;20497;-51
2022/08/02 06:23:46;;;;;;;5.95;3.10;;;20.70;63.60;;;;;;5068645;28;20106;-46
2022/08/02 06:26:26;;;;;;;4.55;3.67;;;20.70;63.40;;;;;;5065001;28;20048;-47
2022/08/02 06:28:55;;;;;;;5.70;2.65;;;20.80;63.00;;;;;;5063448;28;20089;-49
2022/08/02 06:31:23;;;;;;;5.10;2.67;;;20.90;63.00;;;;;;5059627;28;20071;-45
2022/08/02 06:33:49;;;;;;;5.60;3.25;;;21.00;62.90;;;;;;5065766;28;20040;-54
2022/08/02 06:36:46;;;;;;;3.90;2.80;;;21.00;63.10;;;;;;5072142;28;20036;-47
2022/08/02 06:39:42;;;;;;;3.33;3.03;;;21.10;63.90;;;;;;5078370;28;20348;-46
2022/08/02 06:42:14;;;;;;;3.15;2.92;;;21.20;63.00;;;;;;5052707;28;20053;-49
2022/08/02 06:44:44;;;;;;;4.38;2.85;;;21.30;62.50;;;;;;5064472;28;20044;-47
2022/08/02 06:47:16;;;;;;;3.15;2.90;;;21.40;62.30;;;;;;5069860;28;20059;-46
2022/08/02 06:49:43;;;;;;;3.13;2.92;;;21.40;62.00;;;;;;5064736;28;20040;-46
2022/08/02 06:52:27;;;;;;;2.72;2.53;;;21.50;62.20;;;;;;5066920;28;20501;-45
2022/08/02 06:54:58;;;;;;;2.72;2.53;;;21.60;62.60;;;;;;5073696;28;20051;-48
2022/08/02 06:57:26;;;;;;;4.88;2.80;;;21.70;62.00;;;;;;5078887;28;20090;-45
2022/08/02 06:59:52;;;;;;;3.42;2.85;;;21.70;61.80;;;;;;5068843;28;20045;-46
2022/08/02 07:02:22;;;;;;;2.75;2.55;;;21.80;61.70;;;;;;5066956;28;20075;-46
2022/08/02 07:04:48;;;;;;;4.22;3.42;;;21.80;61.60;;;;;;5079678;28;20048;-50
2022/08/02 07:07:15;;;;;;;2.83;2.63;;;21.90;61.20;;;;;;5088841;28;20071;-47
2022/08/02 07:09:42;;;;;;;3.28;2.90;;;22.00;61.20;;;;;;5082335;28;20045;-48
2022/08/02 07:12:29;;;;;;;3.15;2.50;;;22.10;61.00;;;;;;5067625;28;20039;-50
2022/08/02 07:14:57;;;;;;;3.85;3.45;;;22.20;61.30;;;;;;5082981;28;20551;-48
2022/08/02 07:17:24;;;;;;;3.20;2.90;;;22.30;60.60;;;;;;5069829;28;20492;-49
2022/08/02 07:19:51;;;;;;;4.65;3.13;;;22.40;60.40;;;;;;5068740;28;20578;-49
2022/08/02 07:22:21;;;;;;;4.35;2.92;;;22.50;60.20;;;;;;5069644;28;20081;-47
2022/08/02 07:24:49;;;;;;;4.93;3.45;;;22.60;59.90;;;;;;5077101;28;20044;-49
2022/08/02 07:27:16;;;;;;;4.22;3.50;;;22.70;59.80;;;;;;5059278;28;20036;-47
2022/08/02 07:29:42;;;;;;;4.80;3.08;;;22.80;59.70;;;;;;5055581;28;20496;-47
2022/08/02 07:32:15;;;;;;;6.13;3.38;;;22.90;59.20;;;;;;5061780;28;20382;-47
2022/08/02 07:34:42;;;;;;;4.47;3.60;;;23.00;59.10;;;;;;5061425;28;20049;-50
2022/08/02 07:37:17;;;;;;;4.35;3.53;;;23.10;59.10;;;;;;5058445;28;20504;-45
2022/08/02 07:40:05;;;;;;;5.50;3.60;;;23.20;58.80;;;;;;5075528;28;20040;-48
2022/08/02 07:42:42;;;;;;;6.85;3.45;;;23.30;58.80;;;;;;5065703;28;20040;-47
2022/08/02 07:45:09;;;;;;;4.43;3.20;;;23.30;58.40;;;;;;5066744;28;20508;-50
2022/08/02 07:47:40;;;;;;;5.72;4.00;;;23.40;58.40;;;;;;5081335;28;20074;-49
2022/08/02 07:50:08;;;;;;;7.47;4.13;;;23.50;58.20;;;;;;5068402;28;20036;-49
2022/08/02 07:52:35;;;;;;;3.78;3.47;;;23.60;58.70;;;;;;5056897;28;20052;-53
2022/08/02 07:55:02;;;;;;;5.00;3.45;;;23.70;58.00;;;;;;5062757;28;20110;-50
2022/08/02 07:57:29;;;;;;;4.10;3.42;;;23.80;57.60;;;;;;5078307;28;20043;-50
2022/08/02 07:59:56;;;;;;;4.70;3.63;;;23.80;57.40;;;;;;5089467;28;20048;-48
2022/08/02 08:02:26;;;;;;;5.30;3.20;;;23.90;57.30;;;;;;5072010;28;20090;-48
2022/08/02 08:04:52;;;;;;;3.90;3.53;;;24.00;57.10;;;;;;5078195;28;20378;-47
2022/08/02 08:07:19;;;;;;;4.32;3.40;;;24.00;56.90;;;;;;5058049;28;20037;-47
2022/08/02 08:09:49;;;;;;;4.10;3.70;;;24.10;57.00;;;;;;5060515;28;20068;-48
2022/08/02 08:12:19;;;;;;;4.10;3.70;;;24.20;57.00;;;;;;5069822;28;20446;-49
2022/08/02 08:14:46;;;;;;;3.38;3.00;;;24.20;56.80;;;;;;5072347;28;20548;-49
2022/08/02 08:17:13;;;;;;;4.18;3.60;;;24.30;56.70;;;;;;5066166;28;20079;-48
2022/08/02 08:19:40;;;;;;;4.30;3.38;;;24.40;56.50;;;;;;5084064;28;20066;-50
2022/08/02 08:22:17;;;;;;;4.50;3.30;;;24.40;56.20;;;;;;5063300;28;20060;-49
2022/08/02 08:24:44;;;;;;;5.45;4.15;;;24.50;56.10;;;;;;5063717;28;20048;-48
2022/08/02 08:27:13;;;;;;;3.60;3.38;;;24.50;55.70;;;;;;5071933;28;20041;-50
2022/08/02 08:29:44;;;;;;;4.22;3.60;;;24.60;55.70;;;;;;5071603;28;20035;-48
2022/08/02 08:32:12;;;;;;;7.93;3.08;;;24.70;56.10;;;;;;5069950;28;20041;-51
2022/08/02 08:34:45;;;;;;;4.72;3.88;;;24.70;55.70;;;;;;5071533;28;20036;-54
2022/08/02 08:37:13;;;;;;;5.30;3.20;;;24.80;55.70;;;;;;5076020;28;20141;-51
2022/08/02 08:39:45;;;;;;;;;;;24.90;55.60;;;;;;5080714;28;20044;-53
2022/08/02 08:42:29;;;;;;;3.97;3.22;;;24.90;55.60;;;;;;5052176;28;20338;-48
2022/08/02 08:44:56;;;;;;;;;;;25.00;55.10;;;;;;5065259;28;20223;-53
2022/08/02 08:47:35;;;;;;;4.30;3.60;;;25.10;55.20;;;;;;5065039;28;19931;-53
2022/08/02 08:50:05;;;;;;;4.07;3.67;;;25.10;55.00;;;;;;5066078;28;20705;-52
2022/08/02 08:52:40;;;;;;;3.92;3.20;;;25.20;55.20;;;;;;5060818;28;20539;-49
2022/08/02 08:55:10;;;;;;;3.50;3.20;;;25.30;54.90;;;;;;5063158;28;20044;-49
2022/08/02 08:57:42;;;;;;;4.10;2.90;;;25.40;54.80;;;;;;5074431;28;20036;-53
2022/08/02 09:00:15;;;;;;;5.25;3.30;;;25.40;54.20;;;;;;5070547;28;20558;-50
2022/08/02 09:02:42;;;;;;;4.70;2.85;;;25.50;54.00;;;;;;5051699;28;20480;-48
2022/08/02 09:05:11;;;;;;;3.38;2.70;;;25.60;54.10;;;;;;5058025;28;20040;-48
2022/08/02 09:07:40;;;;;;;2.92;2.72;;;25.70;54.10;;;;;;5067647;28;20485;-49
2022/08/02 09:10:35;;;;;;;3.90;3.20;;;25.70;54.10;;;;;;5069900;28;20402;-49
2022/08/02 09:13:12;;;;;;;3.72;2.55;;;25.80;54.10;;;;;;5057035;28;20116;-49
2022/08/02 09:16:04;;;;;;;4.13;2.70;;;25.80;54.00;;;;;;5065370;28;20068;-52
2022/08/02 09:18:43;;;;;;;3.28;2.78;;;25.90;54.00;;;;;;5066247;28;20044;-49
2022/08/02 09:21:11;;;;;;;3.13;2.92;;;26.00;54.20;;;;;;5059713;28;20048;-52
2022/08/02 09:23:39;;;;;;;3.17;2.88;;;26.10;53.60;;;;;;5062087;28;20484;-50
2022/08/02 09:26:07;;;;;;;2.85;2.65;;;26.10;53.50;;;;;;5063104;28;20045;-47
2022/08/02 09:28:37;;;;;;;4.85;2.75;;;26.20;53.10;;;;;;5084598;28;20480;-47
2022/08/02 09:31:09;;;;;;;2.63;2.42;;;26.30;52.70;;;;;;5083187;28;20044;-50
2022/08/02 09:33:36;;;;;;;;;;;26.40;52.60;;;;;;5056362;28;20411;-48
2022/08/02 09:36:12;;;;;;;2.83;2.38;;;26.50;52.80;;;;;;5068026;28;20527;-47
2022/08/02 09:38:50;;;;;;;3.35;2.70;;;26.60;52.20;;;;;;5065943;28;20067;-49
2022/08/02 09:41:24;;;;;;;3.30;3.10;;;26.70;52.20;;;;;;5061464;28;20032;-47
2022/08/02 09:43:52;;;;;;;4.45;2.63;;;26.80;51.90;;;;;;5066983;28;20546;-48
2022/08/02 09:46:37;;;;;;;2.42;2.33;;;26.90;52.10;;;;;;5067085;28;20041;-48
2022/08/02 09:49:15;;;;;;;2.72;2.58;;;27.00;51.80;;;;;;5062202;28;20047;-49
2022/08/02 09:51:45;;;;;;;4.30;2.30;;;27.20;51.70;;;;;;5065205;28;20044;-49
2022/08/02 09:54:28;;;;;;;1.95;1.85;;;27.30;50.90;;;;;;5071886;28;20130;-51
2022/08/02 09:56:57;;;;;;;4.50;2.20;;;27.40;50.70;;;;;;5079763;28;20753;-50
2022/08/02 09:59:25;;;;;;;2.20;2.00;;;27.40;50.30;;;;;;5071364;28;20045;-53
2022/08/02 10:01:53;;;;;;;2.53;2.33;;;27.50;49.90;;;;;;5064044;28;20045;-50
2022/08/02 10:04:31;;;;;;;2.30;2.13;;;27.60;49.80;;;;;;5073174;28;20621;-48
2022/08/02 10:07:02;;;;;;;3.55;2.17;;;27.60;49.90;;;;;;5071787;28;20135;-53
2022/08/02 10:09:30;;;;;;;2.22;2.00;;;27.70;49.90;;;;;;5064911;28;20048;-53
2022/08/02 10:11:59;;;;;;;3.78;3.25;;;27.80;49.60;;;;;;5077918;28;20051;-48
2022/08/02 10:14:27;;;;;;;2.72;2.20;;;27.90;49.50;;;;;;5082761;28;20051;-51
2022/08/02 10:16:56;;;;;;;2.13;1.92;;;28.00;49.80;;;;;;5089839;28;20051;-52
2022/08/02 10:19:24;;;;;;;3.65;2.17;;;28.10;49.40;;;;;;5064495;28;20557;-53
2022/08/02 10:22:13;;;;;;;3.33;1.83;;;28.10;49.10;;;;;;5075944;28;20040;-50
2022/08/02 10:24:41;;;;;;;2.85;2.13;;;28.30;48.90;;;;;;5075008;28;20036;-47
2022/08/02 10:27:19;;;;;;;2.58;2.22;;;28.40;48.60;;;;;;5060876;28;20591;-51
2022/08/02 10:29:49;;;;;;;2.22;2.00;;;28.50;48.30;;;;;;5071710;28;20056;-53
2022/08/02 10:32:31;;;;;;;3.95;1.98;;;28.60;48.20;;;;;;5070245;28;20036;-50
2022/08/02 10:35:20;;;;;;;2.30;1.77;;;28.70;47.80;;;;;;5069618;28;20032;-50
2022/08/02 10:38:02;;;;;;;3.00;1.73;;;28.80;47.50;;;;;;5066398;28;20037;-50
2022/08/02 10:40:52;;;;;;;2.15;1.60;;;29.00;46.80;;;;;;5056639;28;20447;-52
2022/08/02 10:43:30;;;;;;;1.75;1.65;;;29.10;46.80;;;;;;5066036;28;20505;-52
2022/08/02 10:46:22;;;;;;;1.83;1.50;;;29.30;46.10;;;;;;5062294;28;20032;-52
2022/08/02 10:49:07;;;;;;;1.98;1.80;;;29.20;46.00;;;;;;5072098;28;20036;-50
2022/08/02 10:51:54;;;;;;;1.80;1.70;;;29.20;45.90;;;;;;5064817;28;20477;-48
2022/08/02 10:54:24;;;;;;;1.77;1.67;;;29.20;46.10;;;;;;5057279;28;20206;-50
2022/08/02 10:56:55;;;;;;;2.90;1.80;;;29.20;45.30;;;;;;5064057;28;20033;-52
2022/08/02 10:59:29;;;;;;;2.00;1.90;;;29.20;45.40;;;;;;5064698;28;20064;-52
2022/08/02 11:02:00;;;;;;;2.28;1.80;;;29.20;45.00;;;;;;5065956;28;20062;-53
2022/08/02 11:04:40;;;;;;;2.03;1.55;;;29.20;45.80;;;;;;5072844;28;20642;-48
2022/08/02 11:07:16;;;;;;;2.22;1.52;;;29.20;45.50;;;;;;5067240;28;20070;-52
2022/08/02 11:09:44;;;;;;;1.40;1.30;;;29.20;44.90;;;;;;5076569;28;20047;-50
2022/08/02 11:12:14;;;;;;;1.60;1.33;;;29.20;45.00;;;;;;5061597;28;20107;-51
2022/08/02 11:14:44;;;;;;;1.65;1.55;;;29.20;45.00;;;;;;5056708;28;20382;-50
2022/08/02 11:17:12;;;;;;;3.97;2.05;;;29.20;45.10;;;;;;5058062;28;20044;-47
2022/08/02 11:20:07;;;;;;;2.38;1.42;;;29.30;45.10;;;;;;5072959;28;20036;-51
2022/08/02 11:22:34;;;;;;;1.90;1.80;;;29.30;44.70;;;;;;5062242;28;20040;-51
2022/08/02 11:25:26;;;;;;;3.17;1.60;;;29.40;44.70;;;;;;5066889;28;20095;-50
2022/08/02 11:28:10;;;;;;;1.48;1.38;;;29.50;44.70;;;;;;5082680;28;20119;-48
2022/08/02 11:30:38;;;;;;;1.80;1.70;;;29.60;44.30;;;;;;5084502;28;20064;-51
2022/08/02 11:33:05;;;;;;;1.85;1.65;;;29.70;44.10;;;;;;5089073;28;20416;-50
2022/08/02 11:35:37;;;;;;;1.40;1.30;;;29.80;43.90;;;;;;5065802;28;20079;-50
2022/08/02 11:38:18;;;;;;;2.72;1.33;;;30.00;44.10;;;;;;5069669;28;20044;-53
2022/08/02 11:40:47;;;;;;;1.20;1.10;;;30.10;42.80;;;;;;5081666;28;20389;-47
2022/08/02 11:43:19;;;;;;;1.27;1.17;;;30.20;42.40;;;;;;5068819;28;20044;-50
2022/08/02 11:45:47;;;;;;;1.35;1.20;;;30.30;41.80;;;;;;5068998;28;20036;-48
2022/08/02 11:48:28;;;;;;;2.10;1.30;;;30.30;41.90;;;;;;5093678;22;20055;-48
2022/08/02 11:51:09;;;;;;;1.73;1.40;;;30.30;41.70;;;;;;5012386;28;20046;-50
2022/08/02 11:53:49;;;;;;;1.55;1.42;;;30.30;41.70;;;;;;5014256;28;20049;-46
2022/08/02 11:56:18;;;;;;;2.85;1.50;;;30.30;41.70;;;;;;5026920;28;20131;-47
2022/08/02 11:59:08;;;;;;;2.00;1.80;;;30.30;42.30;;;;;;5017609;28;20050;-48
2022/08/02 12:01:37;;;;;;;2.70;1.92;;;30.40;41.90;;;;;;4999325;28;20190;-46
2022/08/02 12:04:17;;;;;;;2.72;1.92;;;30.30;41.80;;;;;;5000834;28;20568;-47
2022/08/02 12:06:53;;;;;;;1.88;1.33;;;30.40;41.10;;;;;;5013174;28;20100;-46
2022/08/02 12:09:21;;;;;;;3.47;1.63;;;30.40;41.40;;;;;;5008934;28;20117;-52
2022/08/02 12:11:49;;;;;;;1.75;1.63;;;30.50;41.60;;;;;;4995381;28;20470;-50
2022/08/02 12:14:17;;;;;;;1.75;1.60;;;30.60;41.40;;;;;;4999725;28;20093;-49
2022/08/02 12:19:29;;;;;;;1.60;1.50;;;30.80;41.00;;;;;;4977986;28;20503;-49
2022/08/02 12:22:22;;;;;;;1.65;1.48;;;30.90;41.20;;;;;;4986437;28;20574;-48
2022/08/02 12:24:54;;;;;;;1.90;1.50;;;31.10;41.30;;;;;;4988283;28;20065;-45
2022/08/02 12:27:35;;;;;;;1.95;1.73;;;31.10;40.60;;;;;;4989849;28;20037;-45
2022/08/02 12:30:08;;;;;;;1.80;1.70;;;31.20;40.50;;;;;;4990636;28;20507;-47
2022/08/02 12:32:36;;;;;;;1.65;1.55;;;31.30;40.30;;;;;;4996048;28;20038;-47
2022/08/02 12:35:08;;;;;;;2.17;1.42;;;31.30;40.80;;;;;;4992067;28;20086;-46
2022/08/02 12:37:39;;;;;;;1.65;1.55;;;31.40;40.70;;;;;;4986901;28;20097;-47
2022/08/02 12:40:22;;;;;;;2.60;1.58;;;31.50;40.40;;;;;;4990829;28;20045;-45
2022/08/02 12:43:03;;;;;;;1.30;1.27;;;31.50;40.30;;;;;;4975796;28;20045;-46
2022/08/02 12:45:51;;;;;;;1.75;1.58;;;31.60;39.00;;;;;;4985469;28;20046;-46
2022/08/02 12:48:37;;;;;;;1.63;1.52;;;31.60;39.10;;;;;;4996667;28;20045;-49
2022/08/02 12:51:35;;;;;;;4.05;1.52;;;31.70;39.30;;;;;;4978042;28;20129;-46
2022/08/02 12:54:31;;;;;;;1.88;1.77;;;31.80;38.80;;;;;;4995281;28;20044;-47
2022/08/02 12:57:12;;;;;;;2.55;1.17;;;31.90;39.40;;;;;;5002666;28;20108;-48
2022/08/02 12:59:41;;;;;;;1.33;1.20;;;31.90;38.50;;;;;;4998419;28;20042;-48
2022/08/02 13:02:10;;;;;;;1.40;1.27;;;32.00;37.50;;;;;;5002965;28;20206;-46
2022/08/02 13:04:38;;;;;;;1.05;0.90;;;32.00;37.40;;;;;;4984229;28;20097;-49
2022/08/02 13:07:17;;;;;;;2.05;0.90;;;32.10;37.40;;;;;;4991672;28;20124;-47
2022/08/02 13:09:48;;;;;;;1.10;1.02;;;32.20;37.30;;;;;;4998782;28;20274;-45
2022/08/02 13:12:15;;;;;;;0.90;0.85;;;32.30;37.40;;;;;;4981925;28;20038;-50
2022/08/02 13:14:43;;;;;;;1.05;1.00;;;32.40;37.00;;;;;;4993206;28;20491;-46
2022/08/02 13:17:10;;;;;;;2.90;1.40;;;32.50;36.70;;;;;;4999725;28;20054;-50
2022/08/02 13:19:37;;;;;;;1.20;1.00;;;32.60;36.90;;;;;;4992516;28;20051;-47